Main page
METAR-TAF:

METAR-TAF

Airports :

Esbjerg Airport

Esbjerg, Denmark

latitude: 55-32N, longitude: 008-34E, elevation: 30 m

Current weather observation

The report was made 27 minutes ago, at 17:20 UTC
Wind 9 kt from the West/Northwest
Temperature 19°C
Humidity 78%
Pressure 1013 hPa
Visibility 10 km or more

METAR: EKEB 231720Z AUTO 29009KT 9999 FEW019/// FEW034/// 19/15 Q1013

Time: 19:47 (17:47 UTC)

Forecast

The report was made 31 minutes ago, at 17:16 UTC
Forecast valid from 23 at 18 UTC to 24 at 03 UTC
Wind 8 kt from the West
Visibility 10 km or more
Broken clouds at a height of 1500 ft
Temporary
from 23 at 18 UTC to 23 at 20 UTC
Broken clouds at a height of 1200 ft

TAF: EKEB 231716Z 2318/2403 28008KT 9999 BKN015 TEMPO 2318/2320 BKN012

Weather observations and forecasts of more than 4000 airports (METAR and TAF reports).

The available stations are represented by yellow and red dots on the map.

Hover mouse over dot to see the name of the station.

Then click to see weather observations and forecasts.

To change the map : click on the green buttons with a black cross to zoom in, on the green button with a dash to zoom out, or on the green arrows for adjacent maps.


METAR-TAF: